sensor_id;sensor_type;location;lat;lon;timestamp;P1;durP1;ratioP1;P2;durP2;ratioP2
69900;SDS011;57183;50.930;5.406;2023-02-04T00:00:15;17.88;;;4.95;;
69900;SDS011;57183;50.930;5.406;2023-02-04T00:02:45;13.25;;;4.57;;
69900;SDS011;57183;50.930;5.406;2023-02-04T00:05:10;15.15;;;5.05;;
69900;SDS011;57183;50.930;5.406;2023-02-04T00:07:37;12.15;;;4.18;;
69900;SDS011;57183;50.930;5.406;2023-02-04T00:10:03;6.53;;;3.30;;
69900;SDS011;57183;50.930;5.406;2023-02-04T00:12:30;6.07;;;3.38;;
69900;SDS011;57183;50.930;5.406;2023-02-04T00:14:56;7.65;;;3.92;;
69900;SDS011;57183;50.930;5.406;2023-02-04T00:17:22;16.55;;;10.15;;
69900;SDS011;57183;50.930;5.406;2023-02-04T00:19:47;9.05;;;4.15;;
69900;SDS011;57183;50.930;5.406;2023-02-04T00:22:13;6.40;;;3.80;;
69900;SDS011;57183;50.930;5.406;2023-02-04T00:24:39;16.30;;;4.25;;
69900;SDS011;57183;50.930;5.406;2023-02-04T00:27:07;11.07;;;3.65;;
69900;SDS011;57183;50.930;5.406;2023-02-04T00:29:33;9.50;;;3.90;;
69900;SDS011;57183;50.930;5.406;2023-02-04T00:31:58;6.60;;;3.22;;
69900;SDS011;57183;50.930;5.406;2023-02-04T00:34:24;8.95;;;3.20;;
69900;SDS011;57183;50.930;5.406;2023-02-04T00:36:50;6.00;;;3.78;;
69900;SDS011;57183;50.930;5.406;2023-02-04T00:39:15;9.07;;;3.95;;
69900;SDS011;57183;50.930;5.406;2023-02-04T00:41:41;9.48;;;4.13;;
69900;SDS011;57183;50.930;5.406;2023-02-04T00:44:07;7.95;;;3.28;;
69900;SDS011;57183;50.930;5.406;2023-02-04T00:46:32;7.70;;;4.05;;
69900;SDS011;57183;50.930;5.406;2023-02-04T00:48:58;10.02;;;3.90;;
69900;SDS011;57183;50.930;5.406;2023-02-04T00:51:24;8.38;;;2.97;;
69900;SDS011;57183;50.930;5.406;2023-02-04T00:53:49;7.28;;;3.70;;
69900;SDS011;57183;50.930;5.406;2023-02-04T00:56:15;7.68;;;4.22;;
69900;SDS011;57183;50.930;5.406;2023-02-04T00:58:40;5.20;;;3.53;;
69900;SDS011;57183;50.930;5.406;2023-02-04T01:01:06;12.23;;;4.78;;
69900;SDS011;57183;50.930;5.406;2023-02-04T01:03:32;10.88;;;4.18;;
69900;SDS011;57183;50.930;5.406;2023-02-04T01:05:57;13.70;;;3.97;;
69900;SDS011;57183;50.930;5.406;2023-02-04T01:08:23;9.75;;;4.45;;
69900;SDS011;57183;50.930;5.406;2023-02-04T01:10:49;6.32;;;3.50;;
69900;SDS011;57183;50.930;5.406;2023-02-04T01:13:14;9.50;;;5.13;;
69900;SDS011;57183;50.930;5.406;2023-02-04T01:15:40;8.27;;;3.63;;
69900;SDS011;57183;50.930;5.406;2023-02-04T01:18:05;6.05;;;3.75;;
69900;SDS011;57183;50.930;5.406;2023-02-04T01:20:31;6.82;;;4.13;;
69900;SDS011;57183;50.930;5.406;2023-02-04T01:22:57;9.18;;;4.25;;
69900;SDS011;57183;50.930;5.406;2023-02-04T01:25:22;6.40;;;3.80;;
69900;SDS011;57183;50.930;5.406;2023-02-04T01:27:48;8.68;;;4.50;;
69900;SDS011;57183;50.930;5.406;2023-02-04T01:30:14;8.13;;;4.57;;
69900;SDS011;57183;50.930;5.406;2023-02-04T01:32:40;7.18;;;3.38;;
69900;SDS011;57183;50.930;5.406;2023-02-04T01:35:05;12.35;;;4.20;;
69900;SDS011;57183;50.930;5.406;2023-02-04T01:37:32;7.80;;;4.50;;
69900;SDS011;57183;50.930;5.406;2023-02-04T01:39:58;12.48;;;4.20;;
69900;SDS011;57183;50.930;5.406;2023-02-04T01:42:24;8.55;;;4.63;;
69900;SDS011;57183;50.930;5.406;2023-02-04T01:44:49;7.78;;;4.57;;
69900;SDS011;57183;50.930;5.406;2023-02-04T01:47:16;8.38;;;5.45;;
69900;SDS011;57183;50.930;5.406;2023-02-04T01:49:42;10.18;;;5.03;;
69900;SDS011;57183;50.930;5.406;2023-02-04T01:52:09;7.60;;;4.93;;
69900;SDS011;57183;50.930;5.406;2023-02-04T01:54:35;9.68;;;4.93;;
69900;SDS011;57183;50.930;5.406;2023-02-04T01:57:01;13.32;;;4.72;;
69900;SDS011;57183;50.930;5.406;2023-02-04T01:59:28;11.18;;;4.32;;
69900;SDS011;57183;50.930;5.406;2023-02-04T02:01:54;14.57;;;5.32;;
69900;SDS011;57183;50.930;5.406;2023-02-04T02:04:22;8.77;;;4.50;;
69900;SDS011;57183;50.930;5.406;2023-02-04T02:06:57;7.43;;;4.28;;
69900;SDS011;57183;50.930;5.406;2023-02-04T02:09:28;8.65;;;4.05;;
69900;SDS011;57183;50.930;5.406;2023-02-04T02:11:54;15.82;;;3.80;;
69900;SDS011;57183;50.930;5.406;2023-02-04T02:14:20;9.15;;;3.20;;
69900;SDS011;57183;50.930;5.406;2023-02-04T02:16:46;11.93;;;3.40;;
69900;SDS011;57183;50.930;5.406;2023-02-04T02:19:14;8.68;;;3.03;;
69900;SDS011;57183;50.930;5.406;2023-02-04T02:22:02;12.05;;;3.30;;
69900;SDS011;57183;50.930;5.406;2023-02-04T02:24:31;12.98;;;2.80;;
69900;SDS011;57183;50.930;5.406;2023-02-04T02:27:00;7.50;;;2.90;;
69900;SDS011;57183;50.930;5.406;2023-02-04T02:29:31;7.72;;;2.53;;
69900;SDS011;57183;50.930;5.406;2023-02-04T02:31:57;6.70;;;2.30;;
69900;SDS011;57183;50.930;5.406;2023-02-04T02:34:23;11.90;;;3.53;;
69900;SDS011;57183;50.930;5.406;2023-02-04T02:36:51;7.55;;;2.25;;
69900;SDS011;57183;50.930;5.406;2023-02-04T02:39:17;8.85;;;2.58;;
69900;SDS011;57183;50.930;5.406;2023-02-04T02:41:43;14.25;;;2.75;;
69900;SDS011;57183;50.930;5.406;2023-02-04T02:44:10;9.52;;;3.30;;
69900;SDS011;57183;50.930;5.406;2023-02-04T02:46:37;7.05;;;1.90;;
69900;SDS011;57183;50.930;5.406;2023-02-04T02:49:05;11.55;;;2.70;;
69900;SDS011;57183;50.930;5.406;2023-02-04T02:51:31;8.80;;;2.58;;
69900;SDS011;57183;50.930;5.406;2023-02-04T02:53:57;7.70;;;2.65;;
69900;SDS011;57183;50.930;5.406;2023-02-04T02:56:22;8.48;;;2.95;;
69900;SDS011;57183;50.930;5.406;2023-02-04T02:58:48;13.38;;;2.38;;
69900;SDS011;57183;50.930;5.406;2023-02-04T03:01:14;9.93;;;2.22;;
69900;SDS011;57183;50.930;5.406;2023-02-04T03:03:42;5.45;;;2.60;;
69900;SDS011;57183;50.930;5.406;2023-02-04T03:06:15;8.43;;;2.13;;
69900;SDS011;57183;50.930;5.406;2023-02-04T03:08:48;5.07;;;1.95;;
69900;SDS011;57183;50.930;5.406;2023-02-04T03:11:16;5.30;;;1.88;;
69900;SDS011;57183;50.930;5.406;2023-02-04T03:13:42;7.35;;;2.15;;
69900;SDS011;57183;50.930;5.406;2023-02-04T03:16:08;6.63;;;1.85;;
69900;SDS011;57183;50.930;5.406;2023-02-04T03:18:34;8.95;;;2.78;;
69900;SDS011;57183;50.930;5.406;2023-02-04T03:21:00;6.35;;;2.47;;
69900;SDS011;57183;50.930;5.406;2023-02-04T03:23:29;5.90;;;2.03;;
69900;SDS011;57183;50.930;5.406;2023-02-04T03:25:57;13.63;;;2.20;;
69900;SDS011;57183;50.930;5.406;2023-02-04T03:28:23;23.48;;;2.47;;
69900;SDS011;57183;50.930;5.406;2023-02-04T03:30:48;47.97;;;3.72;;
69900;SDS011;57183;50.930;5.406;2023-02-04T03:33:23;16.95;;;2.72;;
69900;SDS011;57183;50.930;5.406;2023-02-04T03:35:53;16.15;;;3.25;;
69900;SDS011;57183;50.930;5.406;2023-02-04T03:38:18;14.85;;;3.13;;
69900;SDS011;57183;50.930;5.406;2023-02-04T03:40:44;7.80;;;2.42;;
69900;SDS011;57183;50.930;5.406;2023-02-04T03:43:10;10.75;;;2.60;;
69900;SDS011;57183;50.930;5.406;2023-02-04T03:45:35;8.68;;;2.95;;
69900;SDS011;57183;50.930;5.406;2023-02-04T03:48:01;9.68;;;2.33;;
69900;SDS011;57183;50.930;5.406;2023-02-04T03:50:27;6.20;;;2.10;;
69900;SDS011;57183;50.930;5.406;2023-02-04T03:52:53;5.30;;;2.50;;
69900;SDS011;57183;50.930;5.406;2023-02-04T03:55:18;4.95;;;1.98;;
69900;SDS011;57183;50.930;5.406;2023-02-04T03:57:44;8.45;;;2.53;;
69900;SDS011;57183;50.930;5.406;2023-02-04T04:00:10;11.30;;;2.90;;
69900;SDS011;57183;50.930;5.406;2023-02-04T04:02:38;5.10;;;2.60;;
69900;SDS011;57183;50.930;5.406;2023-02-04T04:05:04;7.70;;;2.88;;
69900;SDS011;57183;50.930;5.406;2023-02-04T04:07:30;5.03;;;2.60;;
69900;SDS011;57183;50.930;5.406;2023-02-04T04:09:56;11.07;;;2.90;;
69900;SDS011;57183;50.930;5.406;2023-02-04T04:12:22;6.45;;;2.97;;
69900;SDS011;57183;50.930;5.406;2023-02-04T04:14:47;13.07;;;2.67;;
69900;SDS011;57183;50.930;5.406;2023-02-04T04:17:13;12.63;;;2.85;;
69900;SDS011;57183;50.930;5.406;2023-02-04T04:19:39;6.78;;;2.92;;
69900;SDS011;57183;50.930;5.406;2023-02-04T04:22:04;9.15;;;3.05;;
69900;SDS011;57183;50.930;5.406;2023-02-04T04:24:30;12.38;;;4.70;;
69900;SDS011;57183;50.930;5.406;2023-02-04T04:26:56;5.85;;;3.25;;
69900;SDS011;57183;50.930;5.406;2023-02-04T04:29:21;11.60;;;2.80;;
69900;SDS011;57183;50.930;5.406;2023-02-04T04:31:47;6.75;;;3.10;;
69900;SDS011;57183;50.930;5.406;2023-02-04T04:34:13;10.05;;;2.65;;
69900;SDS011;57183;50.930;5.406;2023-02-04T04:36:38;6.63;;;2.58;;
69900;SDS011;57183;50.930;5.406;2023-02-04T04:39:04;16.40;;;2.47;;
69900;SDS011;57183;50.930;5.406;2023-02-04T04:41:30;15.13;;;4.65;;
69900;SDS011;57183;50.930;5.406;2023-02-04T04:43:55;19.95;;;3.80;;
69900;SDS011;57183;50.930;5.406;2023-02-04T04:46:21;27.33;;;4.00;;
69900;SDS011;57183;50.930;5.406;2023-02-04T04:48:47;53.88;;;6.00;;
69900;SDS011;57183;50.930;5.406;2023-02-04T04:51:13;44.72;;;4.55;;
69900;SDS011;57183;50.930;5.406;2023-02-04T04:53:38;62.00;;;6.80;;
69900;SDS011;57183;50.930;5.406;2023-02-04T04:56:04;38.05;;;4.72;;
69900;SDS011;57183;50.930;5.406;2023-02-04T04:58:30;24.73;;;3.63;;
69900;SDS011;57183;50.930;5.406;2023-02-04T05:00:56;55.63;;;4.65;;
69900;SDS011;57183;50.930;5.406;2023-02-04T05:03:21;29.58;;;4.20;;
69900;SDS011;57183;50.930;5.406;2023-02-04T05:05:47;28.40;;;3.05;;
69900;SDS011;57183;50.930;5.406;2023-02-04T05:08:12;39.75;;;3.55;;
69900;SDS011;57183;50.930;5.406;2023-02-04T05:10:41;49.40;;;4.80;;
69900;SDS011;57183;50.930;5.406;2023-02-04T05:13:07;44.38;;;4.43;;
69900;SDS011;57183;50.930;5.406;2023-02-04T05:15:33;56.10;;;6.57;;
69900;SDS011;57183;50.930;5.406;2023-02-04T05:17:59;65.90;;;6.75;;
69900;SDS011;57183;50.930;5.406;2023-02-04T05:20:25;35.17;;;4.03;;
69900;SDS011;57183;50.930;5.406;2023-02-04T05:22:51;48.83;;;5.20;;
69900;SDS011;57183;50.930;5.406;2023-02-04T05:25:17;20.08;;;4.95;;
69900;SDS011;57183;50.930;5.406;2023-02-04T05:27:43;22.20;;;4.65;;
69900;SDS011;57183;50.930;5.406;2023-02-04T05:30:09;16.77;;;5.28;;
69900;SDS011;57183;50.930;5.406;2023-02-04T05:32:36;13.65;;;5.50;;
69900;SDS011;57183;50.930;5.406;2023-02-04T05:35:03;20.48;;;5.18;;
69900;SDS011;57183;50.930;5.406;2023-02-04T05:37:29;18.98;;;6.78;;
69900;SDS011;57183;50.930;5.406;2023-02-04T05:39:55;13.95;;;5.00;;
69900;SDS011;57183;50.930;5.406;2023-02-04T05:42:20;17.52;;;5.35;;
69900;SDS011;57183;50.930;5.406;2023-02-04T05:44:46;16.83;;;5.20;;
69900;SDS011;57183;50.930;5.406;2023-02-04T05:47:12;15.27;;;7.65;;
69900;SDS011;57183;50.930;5.406;2023-02-04T05:49:37;13.68;;;6.90;;
69900;SDS011;57183;50.930;5.406;2023-02-04T05:52:03;13.90;;;6.60;;
69900;SDS011;57183;50.930;5.406;2023-02-04T05:54:29;24.45;;;6.43;;
69900;SDS011;57183;50.930;5.406;2023-02-04T05:56:54;17.40;;;6.50;;
69900;SDS011;57183;50.930;5.406;2023-02-04T05:59:20;17.63;;;7.18;;
69900;SDS011;57183;50.930;5.406;2023-02-04T06:01:46;32.67;;;8.57;;
69900;SDS011;57183;50.930;5.406;2023-02-04T06:04:12;22.63;;;7.43;;
69900;SDS011;57183;50.930;5.406;2023-02-04T06:06:39;22.27;;;8.65;;
69900;SDS011;57183;50.930;5.406;2023-02-04T06:09:05;22.02;;;8.13;;
69900;SDS011;57183;50.930;5.406;2023-02-04T06:11:30;27.38;;;9.20;;
69900;SDS011;57183;50.930;5.406;2023-02-04T06:13:56;31.40;;;9.88;;
69900;SDS011;57183;50.930;5.406;2023-02-04T06:16:21;37.28;;;10.15;;
69900;SDS011;57183;50.930;5.406;2023-02-04T06:18:47;35.25;;;9.68;;
69900;SDS011;57183;50.930;5.406;2023-02-04T06:21:13;40.10;;;9.75;;
69900;SDS011;57183;50.930;5.406;2023-02-04T06:23:38;24.17;;;8.77;;
69900;SDS011;57183;50.930;5.406;2023-02-04T06:26:04;43.38;;;9.80;;
69900;SDS011;57183;50.930;5.406;2023-02-04T06:28:30;25.92;;;7.68;;
69900;SDS011;57183;50.930;5.406;2023-02-04T06:30:55;45.55;;;9.85;;
69900;SDS011;57183;50.930;5.406;2023-02-04T06:33:21;41.70;;;10.52;;
69900;SDS011;57183;50.930;5.406;2023-02-04T06:35:48;59.90;;;13.75;;
69900;SDS011;57183;50.930;5.406;2023-02-04T06:38:14;33.05;;;10.30;;
69900;SDS011;57183;50.930;5.406;2023-02-04T06:40:40;48.65;;;11.32;;
69900;SDS011;57183;50.930;5.406;2023-02-04T06:43:05;50.28;;;11.60;;
69900;SDS011;57183;50.930;5.406;2023-02-04T06:45:31;58.40;;;10.95;;
69900;SDS011;57183;50.930;5.406;2023-02-04T06:47:57;142.68;;;15.85;;
69900;SDS011;57183;50.930;5.406;2023-02-04T06:50:23;87.32;;;12.52;;
69900;SDS011;57183;50.930;5.406;2023-02-04T06:52:49;82.25;;;12.43;;
69900;SDS011;57183;50.930;5.406;2023-02-04T06:55:15;53.15;;;11.05;;
69900;SDS011;57183;50.930;5.406;2023-02-04T06:57:41;80.72;;;12.50;;
69900;SDS011;57183;50.930;5.406;2023-02-04T07:00:08;63.85;;;10.63;;
69900;SDS011;57183;50.930;5.406;2023-02-04T07:02:35;167.55;;;13.75;;
69900;SDS011;57183;50.930;5.406;2023-02-04T07:05:01;89.68;;;12.30;;
69900;SDS011;57183;50.930;5.406;2023-02-04T07:07:28;37.00;;;8.85;;
69900;SDS011;57183;50.930;5.406;2023-02-04T07:09:53;45.05;;;9.95;;
69900;SDS011;57183;50.930;5.406;2023-02-04T07:12:19;36.42;;;11.23;;
69900;SDS011;57183;50.930;5.406;2023-02-04T07:14:45;33.08;;;10.23;;
69900;SDS011;57183;50.930;5.406;2023-02-04T07:17:10;38.67;;;9.98;;
69900;SDS011;57183;50.930;5.406;2023-02-04T07:19:36;36.30;;;10.77;;
69900;SDS011;57183;50.930;5.406;2023-02-04T07:22:02;44.63;;;12.82;;
69900;SDS011;57183;50.930;5.406;2023-02-04T07:24:28;29.83;;;11.73;;
69900;SDS011;57183;50.930;5.406;2023-02-04T07:26:54;32.60;;;11.82;;
69900;SDS011;57183;50.930;5.406;2023-02-04T07:29:20;37.35;;;12.10;;
69900;SDS011;57183;50.930;5.406;2023-02-04T07:31:46;28.65;;;11.15;;
69900;SDS011;57183;50.930;5.406;2023-02-04T07:34:14;25.65;;;9.25;;
69900;SDS011;57183;50.930;5.406;2023-02-04T07:36:40;26.65;;;10.27;;
69900;SDS011;57183;50.930;5.406;2023-02-04T07:39:06;24.05;;;9.77;;
69900;SDS011;57183;50.930;5.406;2023-02-04T07:41:32;27.77;;;11.13;;
69900;SDS011;57183;50.930;5.406;2023-02-04T07:43:58;31.90;;;10.63;;
69900;SDS011;57183;50.930;5.406;2023-02-04T07:46:24;23.17;;;8.50;;
69900;SDS011;57183;50.930;5.406;2023-02-04T07:48:50;35.63;;;9.70;;
69900;SDS011;57183;50.930;5.406;2023-02-04T07:51:15;26.58;;;9.15;;
69900;SDS011;57183;50.930;5.406;2023-02-04T07:53:41;24.25;;;9.60;;
69900;SDS011;57183;50.930;5.406;2023-02-04T07:56:07;29.50;;;9.60;;
69900;SDS011;57183;50.930;5.406;2023-02-04T07:58:32;33.40;;;9.55;;
69900;SDS011;57183;50.930;5.406;2023-02-04T08:00:58;33.25;;;10.07;;
69900;SDS011;57183;50.930;5.406;2023-02-04T08:03:25;34.83;;;10.40;;
69900;SDS011;57183;50.930;5.406;2023-02-04T08:05:51;49.40;;;12.38;;
69900;SDS011;57183;50.930;5.406;2023-02-04T08:08:17;29.45;;;10.00;;
69900;SDS011;57183;50.930;5.406;2023-02-04T08:10:44;39.53;;;11.73;;
69900;SDS011;57183;50.930;5.406;2023-02-04T08:13:10;43.03;;;10.75;;
69900;SDS011;57183;50.930;5.406;2023-02-04T08:15:35;28.83;;;9.70;;
69900;SDS011;57183;50.930;5.406;2023-02-04T08:18:01;25.80;;;10.18;;
69900;SDS011;57183;50.930;5.406;2023-02-04T08:20:27;29.42;;;9.75;;
69900;SDS011;57183;50.930;5.406;2023-02-04T08:22:52;23.63;;;9.25;;
69900;SDS011;57183;50.930;5.406;2023-02-04T08:25:18;21.25;;;10.05;;
69900;SDS011;57183;50.930;5.406;2023-02-04T08:27:44;17.60;;;9.30;;
69900;SDS011;57183;50.930;5.406;2023-02-04T08:30:10;21.05;;;8.60;;
69900;SDS011;57183;50.930;5.406;2023-02-04T08:32:36;25.50;;;8.95;;
69900;SDS011;57183;50.930;5.406;2023-02-04T08:35:03;22.00;;;9.80;;
69900;SDS011;57183;50.930;5.406;2023-02-04T08:37:29;18.77;;;8.95;;
69900;SDS011;57183;50.930;5.406;2023-02-04T08:39:55;19.55;;;8.73;;
69900;SDS011;57183;50.930;5.406;2023-02-04T08:42:21;18.90;;;9.15;;
69900;SDS011;57183;50.930;5.406;2023-02-04T08:44:47;18.20;;;9.77;;
69900;SDS011;57183;50.930;5.406;2023-02-04T08:47:12;20.17;;;8.80;;
69900;SDS011;57183;50.930;5.406;2023-02-04T08:49:38;16.27;;;8.68;;
69900;SDS011;57183;50.930;5.406;2023-02-04T08:52:04;16.40;;;8.63;;
69900;SDS011;57183;50.930;5.406;2023-02-04T08:54:31;21.67;;;9.30;;
69900;SDS011;57183;50.930;5.406;2023-02-04T08:56:57;20.92;;;10.30;;
69900;SDS011;57183;50.930;5.406;2023-02-04T08:59:23;16.90;;;8.45;;
69900;SDS011;57183;50.930;5.406;2023-02-04T09:01:50;21.33;;;11.00;;
69900;SDS011;57183;50.930;5.406;2023-02-04T09:04:20;22.63;;;11.50;;
69900;SDS011;57183;50.930;5.406;2023-02-04T09:06:47;25.38;;;11.25;;
69900;SDS011;57183;50.930;5.406;2023-02-04T09:09:13;28.20;;;12.77;;
69900;SDS011;57183;50.930;5.406;2023-02-04T09:11:40;21.80;;;10.63;;
69900;SDS011;57183;50.930;5.406;2023-02-04T09:14:06;24.17;;;12.35;;
69900;SDS011;57183;50.930;5.406;2023-02-04T09:16:32;22.08;;;12.30;;
69900;SDS011;57183;50.930;5.406;2023-02-04T09:18:58;30.05;;;13.15;;
69900;SDS011;57183;50.930;5.406;2023-02-04T09:21:24;26.60;;;13.82;;
69900;SDS011;57183;50.930;5.406;2023-02-04T09:23:50;26.63;;;11.55;;
69900;SDS011;57183;50.930;5.406;2023-02-04T09:26:16;31.50;;;14.15;;
69900;SDS011;57183;50.930;5.406;2023-02-04T09:28:41;23.42;;;11.77;;
69900;SDS011;57183;50.930;5.406;2023-02-04T09:31:07;29.02;;;13.73;;
69900;SDS011;57183;50.930;5.406;2023-02-04T09:33:33;27.83;;;14.10;;
69900;SDS011;57183;50.930;5.406;2023-02-04T09:35:59;24.63;;;12.82;;
69900;SDS011;57183;50.930;5.406;2023-02-04T09:38:25;32.58;;;13.45;;
69900;SDS011;57183;50.930;5.406;2023-02-04T09:41:01;29.33;;;12.82;;
69900;SDS011;57183;50.930;5.406;2023-02-04T09:43:30;34.25;;;15.55;;
69900;SDS011;57183;50.930;5.406;2023-02-04T09:46:07;26.08;;;14.15;;
69900;SDS011;57183;50.930;5.406;2023-02-04T09:48:44;27.45;;;14.15;;
69900;SDS011;57183;50.930;5.406;2023-02-04T09:51:17;29.42;;;14.57;;
69900;SDS011;57183;50.930;5.406;2023-02-04T09:53:47;28.40;;;14.05;;
69900;SDS011;57183;50.930;5.406;2023-02-04T09:56:14;28.60;;;13.07;;
69900;SDS011;57183;50.930;5.406;2023-02-04T09:58:41;29.15;;;12.90;;
69900;SDS011;57183;50.930;5.406;2023-02-04T10:01:14;26.77;;;12.63;;
69900;SDS011;57183;50.930;5.406;2023-02-04T10:03:42;22.70;;;10.63;;
69900;SDS011;57183;50.930;5.406;2023-02-04T10:06:13;30.13;;;14.05;;
69900;SDS011;57183;50.930;5.406;2023-02-04T10:08:39;27.38;;;15.00;;
69900;SDS011;57183;50.930;5.406;2023-02-04T10:11:06;25.17;;;12.50;;
69900;SDS011;57183;50.930;5.406;2023-02-04T10:13:40;33.55;;;14.02;;
69900;SDS011;57183;50.930;5.406;2023-02-04T10:16:14;21.63;;;9.27;;
69900;SDS011;57183;50.930;5.406;2023-02-04T10:18:41;25.83;;;12.63;;
69900;SDS011;57183;50.930;5.406;2023-02-04T10:23:40;32.72;;;12.70;;
69900;SDS011;57183;50.930;5.406;2023-02-04T10:26:11;27.33;;;12.32;;
69900;SDS011;57183;50.930;5.406;2023-02-04T10:28:38;30.70;;;12.88;;
69900;SDS011;57183;50.930;5.406;2023-02-04T10:31:04;28.40;;;12.30;;
69900;SDS011;57183;50.930;5.406;2023-02-04T10:33:34;26.30;;;11.70;;
69900;SDS011;57183;50.930;5.406;2023-02-04T10:36:02;26.63;;;13.40;;
69900;SDS011;57183;50.930;5.406;2023-02-04T10:38:29;31.77;;;13.00;;
69900;SDS011;57183;50.930;5.406;2023-02-04T10:41:01;28.15;;;12.25;;
69900;SDS011;57183;50.930;5.406;2023-02-04T10:43:29;20.50;;;9.83;;
69900;SDS011;57183;50.930;5.406;2023-02-04T10:45:56;33.25;;;13.63;;
69900;SDS011;57183;50.930;5.406;2023-02-04T10:48:28;24.80;;;11.45;;
69900;SDS011;57183;50.930;5.406;2023-02-04T10:50:55;28.85;;;13.40;;
69900;SDS011;57183;50.930;5.406;2023-02-04T10:53:22;25.85;;;12.05;;
69900;SDS011;57183;50.930;5.406;2023-02-04T10:56:17;27.88;;;12.95;;
69900;SDS011;57183;50.930;5.406;2023-02-04T10:58:46;29.55;;;12.70;;
69900;SDS011;57183;50.930;5.406;2023-02-04T11:01:13;29.08;;;13.13;;
69900;SDS011;57183;50.930;5.406;2023-02-04T11:03:40;36.40;;;15.05;;
69900;SDS011;57183;50.930;5.406;2023-02-04T11:06:09;35.30;;;14.48;;
69900;SDS011;57183;50.930;5.406;2023-02-04T11:08:41;29.98;;;13.35;;
69900;SDS011;57183;50.930;5.406;2023-02-04T11:11:08;29.92;;;12.15;;
69900;SDS011;57183;50.930;5.406;2023-02-04T11:16:31;33.05;;;11.18;;
69900;SDS011;57183;50.930;5.406;2023-02-04T11:19:08;28.90;;;12.32;;
69900;SDS011;57183;50.930;5.406;2023-02-04T11:39:23;35.38;;;15.30;;
69900;SDS011;57183;50.930;5.406;2023-02-04T11:42:22;27.80;;;13.20;;
69900;SDS011;57183;50.930;5.406;2023-02-04T11:45:12;25.05;;;12.75;;
69900;SDS011;57183;50.930;5.406;2023-02-04T11:47:47;28.33;;;11.73;;
69900;SDS011;57183;50.930;5.406;2023-02-04T11:52:54;22.52;;;10.82;;
69900;SDS011;57183;50.930;5.406;2023-02-04T11:55:21;25.55;;;12.98;;
69900;SDS011;57183;50.930;5.406;2023-02-04T11:57:50;32.15;;;12.98;;
69900;SDS011;57183;50.930;5.406;2023-02-04T12:00:18;25.17;;;13.77;;
69900;SDS011;57183;50.930;5.406;2023-02-04T12:02:50;29.92;;;12.52;;
69900;SDS011;57183;50.930;5.406;2023-02-04T12:05:39;33.85;;;13.52;;
69900;SDS011;57183;50.930;5.406;2023-02-04T12:08:10;35.60;;;12.50;;
69900;SDS011;57183;50.930;5.406;2023-02-04T12:13:28;26.08;;;9.57;;
69900;SDS011;57183;50.930;5.406;2023-02-04T12:15:59;20.50;;;9.68;;
69900;SDS011;57183;50.930;5.406;2023-02-04T12:18:27;24.50;;;10.98;;
69900;SDS011;57183;50.930;5.406;2023-02-04T12:20:54;24.17;;;10.18;;
69900;SDS011;57183;50.930;5.406;2023-02-04T12:23:20;23.33;;;9.60;;
69900;SDS011;57183;50.930;5.406;2023-02-04T12:25:47;24.05;;;10.18;;
69900;SDS011;57183;50.930;5.406;2023-02-04T12:28:13;21.88;;;10.43;;
69900;SDS011;57183;50.930;5.406;2023-02-04T12:30:39;29.80;;;10.13;;
69900;SDS011;57183;50.930;5.406;2023-02-04T12:33:05;25.20;;;11.20;;
69900;SDS011;57183;50.930;5.406;2023-02-04T12:35:31;22.52;;;10.82;;
69900;SDS011;57183;50.930;5.406;2023-02-04T12:37:58;25.58;;;11.20;;
69900;SDS011;57183;50.930;5.406;2023-02-04T12:40:23;28.35;;;10.60;;
69900;SDS011;57183;50.930;5.406;2023-02-04T12:42:49;27.55;;;12.13;;
69900;SDS011;57183;50.930;5.406;2023-02-04T12:45:16;32.33;;;13.40;;
69900;SDS011;57183;50.930;5.406;2023-02-04T12:47:42;32.22;;;12.52;;
69900;SDS011;57183;50.930;5.406;2023-02-04T12:50:09;26.40;;;10.75;;
69900;SDS011;57183;50.930;5.406;2023-02-04T12:52:39;22.67;;;10.30;;
69900;SDS011;57183;50.930;5.406;2023-02-04T12:55:06;28.50;;;11.82;;
69900;SDS011;57183;50.930;5.406;2023-02-04T12:57:33;29.88;;;12.98;;
69900;SDS011;57183;50.930;5.406;2023-02-04T12:59:59;31.23;;;11.95;;
69900;SDS011;57183;50.930;5.406;2023-02-04T13:02:28;28.60;;;12.00;;
69900;SDS011;57183;50.930;5.406;2023-02-04T13:04:54;22.35;;;10.40;;
69900;SDS011;57183;50.930;5.406;2023-02-04T13:07:20;24.38;;;10.38;;
69900;SDS011;57183;50.930;5.406;2023-02-04T13:09:46;29.60;;;11.80;;
69900;SDS011;57183;50.930;5.406;2023-02-04T13:12:13;23.63;;;10.45;;
69900;SDS011;57183;50.930;5.406;2023-02-04T13:14:39;25.70;;;11.07;;
69900;SDS011;57183;50.930;5.406;2023-02-04T13:17:08;21.67;;;9.90;;
69900;SDS011;57183;50.930;5.406;2023-02-04T13:19:34;25.75;;;11.70;;
69900;SDS011;57183;50.930;5.406;2023-02-04T13:22:00;24.92;;;11.20;;
69900;SDS011;57183;50.930;5.406;2023-02-04T13:24:26;22.42;;;11.23;;
69900;SDS011;57183;50.930;5.406;2023-02-04T13:26:52;26.52;;;12.18;;
69900;SDS011;57183;50.930;5.406;2023-02-04T13:29:18;33.08;;;13.48;;
69900;SDS011;57183;50.930;5.406;2023-02-04T13:31:43;23.02;;;10.43;;
69900;SDS011;57183;50.930;5.406;2023-02-04T13:34:09;21.10;;;10.07;;
69900;SDS011;57183;50.930;5.406;2023-02-04T13:36:35;27.80;;;11.98;;
69900;SDS011;57183;50.930;5.406;2023-02-04T13:39:01;34.25;;;12.80;;
69900;SDS011;57183;50.930;5.406;2023-02-04T13:41:26;29.67;;;13.02;;
69900;SDS011;57183;50.930;5.406;2023-02-04T13:43:52;26.17;;;10.75;;
69900;SDS011;57183;50.930;5.406;2023-02-04T13:46:18;26.08;;;12.93;;
69900;SDS011;57183;50.930;5.406;2023-02-04T13:48:45;36.67;;;13.10;;
69900;SDS011;57183;50.930;5.406;2023-02-04T13:51:11;32.83;;;13.90;;
69900;SDS011;57183;50.930;5.406;2023-02-04T13:53:37;32.97;;;13.70;;
69900;SDS011;57183;50.930;5.406;2023-02-04T13:56:04;28.52;;;13.15;;
69900;SDS011;57183;50.930;5.406;2023-02-04T13:58:29;30.02;;;11.88;;
69900;SDS011;57183;50.930;5.406;2023-02-04T14:00:55;35.38;;;12.85;;
69900;SDS011;57183;50.930;5.406;2023-02-04T14:03:24;25.75;;;11.55;;
69900;SDS011;57183;50.930;5.406;2023-02-04T14:05:51;23.88;;;11.15;;
69900;SDS011;57183;50.930;5.406;2023-02-04T14:08:18;34.45;;;12.32;;
69900;SDS011;57183;50.930;5.406;2023-02-04T14:10:44;21.63;;;10.52;;
69900;SDS011;57183;50.930;5.406;2023-02-04T14:13:10;25.23;;;11.75;;
69900;SDS011;57183;50.930;5.406;2023-02-04T14:15:36;20.30;;;10.52;;
69900;SDS011;57183;50.930;5.406;2023-02-04T14:18:02;27.83;;;10.73;;
69900;SDS011;57183;50.930;5.406;2023-02-04T14:20:29;23.90;;;10.02;;
69900;SDS011;57183;50.930;5.406;2023-02-04T14:22:55;20.05;;;9.75;;
69900;SDS011;57183;50.930;5.406;2023-02-04T14:25:21;24.52;;;10.65;;
69900;SDS011;57183;50.930;5.406;2023-02-04T14:27:47;23.98;;;10.27;;
69900;SDS011;57183;50.930;5.406;2023-02-04T14:30:20;25.35;;;10.60;;
69900;SDS011;57183;50.930;5.406;2023-02-04T14:35:14;31.10;;;11.73;;
69900;SDS011;57183;50.930;5.406;2023-02-04T14:37:40;24.48;;;12.73;;
69900;SDS011;57183;50.930;5.406;2023-02-04T14:40:06;35.90;;;13.63;;
69900;SDS011;57183;50.930;5.406;2023-02-04T14:42:32;28.95;;;13.18;;
69900;SDS011;57183;50.930;5.406;2023-02-04T14:44:59;38.03;;;14.27;;
69900;SDS011;57183;50.930;5.406;2023-02-04T14:47:29;39.63;;;14.15;;
69900;SDS011;57183;50.930;5.406;2023-02-04T14:49:57;29.83;;;14.13;;
69900;SDS011;57183;50.930;5.406;2023-02-04T14:52:23;29.40;;;13.93;;
69900;SDS011;57183;50.930;5.406;2023-02-04T14:54:48;34.97;;;16.08;;
69900;SDS011;57183;50.930;5.406;2023-02-04T14:57:14;35.63;;;15.75;;
69900;SDS011;57183;50.930;5.406;2023-02-04T14:59:40;40.40;;;17.13;;